sensor_id;sensor_type;location;lat;lon;timestamp;temperature;humidity
46366;DHT22;32073;49.166;8.076;2022-10-31T00:01:00;16.80;64.50
46366;DHT22;32073;49.166;8.076;2022-10-31T00:05:01;16.90;64.50
46366;DHT22;32073;49.166;8.076;2022-10-31T00:09:03;16.80;64.40
46366;DHT22;32073;49.166;8.076;2022-10-31T00:13:04;16.80;64.40
46366;DHT22;32073;49.166;8.076;2022-10-31T00:17:05;16.80;64.40
46366;DHT22;32073;49.166;8.076;2022-10-31T00:21:06;16.80;64.40
46366;DHT22;32073;49.166;8.076;2022-10-31T00:25:07;16.80;64.50
46366;DHT22;32073;49.166;8.076;2022-10-31T00:29:08;16.80;64.40
46366;DHT22;32073;49.166;8.076;2022-10-31T00:33:08;16.80;64.50
46366;DHT22;32073;49.166;8.076;2022-10-31T00:37:09;16.80;64.50
46366;DHT22;32073;49.166;8.076;2022-10-31T00:41:10;16.80;64.50
46366;DHT22;32073;49.166;8.076;2022-10-31T00:45:12;16.80;64.50
46366;DHT22;32073;49.166;8.076;2022-10-31T00:49:13;16.80;64.40
46366;DHT22;32073;49.166;8.076;2022-10-31T00:53:13;16.80;64.40
46366;DHT22;32073;49.166;8.076;2022-10-31T00:57:14;16.70;64.40
46366;DHT22;32073;49.166;8.076;2022-10-31T01:01:15;16.80;64.40
46366;DHT22;32073;49.166;8.076;2022-10-31T01:05:15;16.80;64.50
46366;DHT22;32073;49.166;8.076;2022-10-31T01:09:16;16.80;64.50
46366;DHT22;32073;49.166;8.076;2022-10-31T01:13:17;16.80;64.60
46366;DHT22;32073;49.166;8.076;2022-10-31T01:17:17;16.80;64.60
46366;DHT22;32073;49.166;8.076;2022-10-31T01:21:21;16.80;64.60
46366;DHT22;32073;49.166;8.076;2022-10-31T01:25:23;16.80;64.60
46366;DHT22;32073;49.166;8.076;2022-10-31T01:29:24;16.80;64.50
46366;DHT22;32073;49.166;8.076;2022-10-31T01:33:24;16.80;64.50
46366;DHT22;32073;49.166;8.076;2022-10-31T01:37:25;16.80;64.50
46366;DHT22;32073;49.166;8.076;2022-10-31T01:41:29;16.80;64.50
46366;DHT22;32073;49.166;8.076;2022-10-31T01:45:31;16.90;64.60
46366;DHT22;32073;49.166;8.076;2022-10-31T01:49:49;16.80;64.50
46366;DHT22;32073;49.166;8.076;2022-10-31T01:53:53;16.80;64.50
46366;DHT22;32073;49.166;8.076;2022-10-31T01:58:00;16.80;64.50
46366;DHT22;32073;49.166;8.076;2022-10-31T02:02:04;16.80;64.50
46366;DHT22;32073;49.166;8.076;2022-10-31T02:06:10;16.80;64.60
46366;DHT22;32073;49.166;8.076;2022-10-31T02:10:19;16.90;64.70
46366;DHT22;32073;49.166;8.076;2022-10-31T02:14:23;16.80;64.70
46366;DHT22;32073;49.166;8.076;2022-10-31T02:18:27;16.80;64.80
46366;DHT22;32073;49.166;8.076;2022-10-31T02:26:54;16.90;64.80
46366;DHT22;32073;49.166;8.076;2022-10-31T02:31:18;16.90;64.60
46366;DHT22;32073;49.166;8.076;2022-10-31T02:35:50;16.80;64.40
46366;DHT22;32073;49.166;8.076;2022-10-31T02:40:44;16.80;64.40
46366;DHT22;32073;49.166;8.076;2022-10-31T02:44:56;16.80;64.50
46366;DHT22;32073;49.166;8.076;2022-10-31T02:49:07;16.70;64.40
46366;DHT22;32073;49.166;8.076;2022-10-31T02:53:15;16.70;64.40
46366;DHT22;32073;49.166;8.076;2022-10-31T02:57:23;16.60;64.50
46366;DHT22;32073;49.166;8.076;2022-10-31T03:01:45;16.70;64.60
46366;DHT22;32073;49.166;8.076;2022-10-31T03:06:16;16.60;64.50
46366;DHT22;32073;49.166;8.076;2022-10-31T03:19:08;16.60;64.60
46366;DHT22;32073;49.166;8.076;2022-10-31T03:23:13;16.50;64.60
46366;DHT22;32073;49.166;8.076;2022-10-31T03:27:18;16.50;64.40
46366;DHT22;32073;49.166;8.076;2022-10-31T03:31:27;16.40;64.40
46366;DHT22;32073;49.166;8.076;2022-10-31T03:35:32;16.40;64.50
46366;DHT22;32073;49.166;8.076;2022-10-31T03:39:33;16.40;64.40
46366;DHT22;32073;49.166;8.076;2022-10-31T03:43:40;16.30;64.40
46366;DHT22;32073;49.166;8.076;2022-10-31T03:47:43;16.30;64.40
46366;DHT22;32073;49.166;8.076;2022-10-31T03:51:54;16.20;64.40
46366;DHT22;32073;49.166;8.076;2022-10-31T03:56:02;16.20;64.40
46366;DHT22;32073;49.166;8.076;2022-10-31T04:00:14;16.20;64.50
46366;DHT22;32073;49.166;8.076;2022-10-31T04:04:15;16.20;64.50
46366;DHT22;32073;49.166;8.076;2022-10-31T04:08:19;16.10;64.40
46366;DHT22;32073;49.166;8.076;2022-10-31T04:12:24;16.10;64.40
46366;DHT22;32073;49.166;8.076;2022-10-31T04:16:25;16.10;64.40
46366;DHT22;32073;49.166;8.076;2022-10-31T04:20:34;16.00;64.40
46366;DHT22;32073;49.166;8.076;2022-10-31T04:24:40;16.00;64.40
46366;DHT22;32073;49.166;8.076;2022-10-31T04:28:41;16.00;64.50
46366;DHT22;32073;49.166;8.076;2022-10-31T04:32:41;16.00;64.60
46366;DHT22;32073;49.166;8.076;2022-10-31T04:36:42;15.90;64.60
46366;DHT22;32073;49.166;8.076;2022-10-31T04:40:44;15.90;64.70
46366;DHT22;32073;49.166;8.076;2022-10-31T04:44:45;15.90;64.80
46366;DHT22;32073;49.166;8.076;2022-10-31T04:48:46;15.90;65.00
46366;DHT22;32073;49.166;8.076;2022-10-31T04:52:47;15.80;64.90
46366;DHT22;32073;49.166;8.076;2022-10-31T04:56:47;15.80;65.00
46366;DHT22;32073;49.166;8.076;2022-10-31T05:00:52;15.80;65.10
46366;DHT22;32073;49.166;8.076;2022-10-31T05:04:53;15.80;65.20
46366;DHT22;32073;49.166;8.076;2022-10-31T05:08:54;15.90;65.30
46366;DHT22;32073;49.166;8.076;2022-10-31T05:12:56;15.80;65.30
46366;DHT22;32073;49.166;8.076;2022-10-31T05:16:58;15.80;65.40
46366;DHT22;32073;49.166;8.076;2022-10-31T05:20:59;15.80;65.50
46366;DHT22;32073;49.166;8.076;2022-10-31T05:24:59;15.70;65.60
46366;DHT22;32073;49.166;8.076;2022-10-31T05:29:00;15.70;65.70
46366;DHT22;32073;49.166;8.076;2022-10-31T05:33:01;15.70;65.90
46366;DHT22;32073;49.166;8.076;2022-10-31T05:37:01;15.70;66.10
46366;DHT22;32073;49.166;8.076;2022-10-31T05:41:02;15.80;66.30
46366;DHT22;32073;49.166;8.076;2022-10-31T05:45:03;15.80;66.40
46366;DHT22;32073;49.166;8.076;2022-10-31T05:49:04;15.80;66.40
46366;DHT22;32073;49.166;8.076;2022-10-31T05:53:05;15.80;66.40
46366;DHT22;32073;49.166;8.076;2022-10-31T05:57:06;15.80;66.40
46366;DHT22;32073;49.166;8.076;2022-10-31T06:01:06;15.80;66.40
46366;DHT22;32073;49.166;8.076;2022-10-31T06:05:07;15.80;66.40
46366;DHT22;32073;49.166;8.076;2022-10-31T06:09:08;15.90;66.40
46366;DHT22;32073;49.166;8.076;2022-10-31T06:13:09;15.90;66.40
46366;DHT22;32073;49.166;8.076;2022-10-31T06:17:09;15.90;66.40
46366;DHT22;32073;49.166;8.076;2022-10-31T06:21:10;16.00;66.40
46366;DHT22;32073;49.166;8.076;2022-10-31T06:25:11;16.00;66.40
46366;DHT22;32073;49.166;8.076;2022-10-31T06:29:11;16.00;66.40
46366;DHT22;32073;49.166;8.076;2022-10-31T06:33:12;16.00;66.40
46366;DHT22;32073;49.166;8.076;2022-10-31T06:37:13;16.00;66.40
46366;DHT22;32073;49.166;8.076;2022-10-31T06:41:14;16.00;66.40
46366;DHT22;32073;49.166;8.076;2022-10-31T06:45:15;16.00;66.40
46366;DHT22;32073;49.166;8.076;2022-10-31T06:49:16;16.00;66.10
46366;DHT22;32073;49.166;8.076;2022-10-31T06:53:16;16.00;66.00
46366;DHT22;32073;49.166;8.076;2022-10-31T06:57:17;16.00;66.10
46366;DHT22;32073;49.166;8.076;2022-10-31T07:01:18;16.00;66.20
46366;DHT22;32073;49.166;8.076;2022-10-31T07:05:18;16.10;66.40
46366;DHT22;32073;49.166;8.076;2022-10-31T07:09:21;16.00;66.40
46366;DHT22;32073;49.166;8.076;2022-10-31T07:13:22;16.10;66.50
46366;DHT22;32073;49.166;8.076;2022-10-31T07:17:25;16.10;66.50
46366;DHT22;32073;49.166;8.076;2022-10-31T07:21:26;16.10;66.50
46366;DHT22;32073;49.166;8.076;2022-10-31T07:25:27;16.10;66.50
46366;DHT22;32073;49.166;8.076;2022-10-31T07:29:27;16.10;66.50
46366;DHT22;32073;49.166;8.076;2022-10-31T07:33:28;16.10;66.50
46366;DHT22;32073;49.166;8.076;2022-10-31T07:37:28;16.10;66.70
46366;DHT22;32073;49.166;8.076;2022-10-31T07:41:29;16.10;66.90
46366;DHT22;32073;49.166;8.076;2022-10-31T07:45:30;16.10;67.00
46366;DHT22;32073;49.166;8.076;2022-10-31T07:49:31;16.20;67.10
46366;DHT22;32073;49.166;8.076;2022-10-31T07:53:31;16.20;67.30
46366;DHT22;32073;49.166;8.076;2022-10-31T07:57:32;16.30;66.80
46366;DHT22;32073;49.166;8.076;2022-10-31T08:01:33;16.30;67.60
46366;DHT22;32073;49.166;8.076;2022-10-31T08:05:35;16.40;67.80
46366;DHT22;32073;49.166;8.076;2022-10-31T08:09:36;16.40;67.80
46366;DHT22;32073;49.166;8.076;2022-10-31T08:13:36;16.50;67.80
46366;DHT22;32073;49.166;8.076;2022-10-31T08:17:37;16.50;67.80
46366;DHT22;32073;49.166;8.076;2022-10-31T08:21:39;16.60;67.90
46366;DHT22;32073;49.166;8.076;2022-10-31T08:25:39;16.60;67.90
46366;DHT22;32073;49.166;8.076;2022-10-31T08:29:42;16.70;68.00
46366;DHT22;32073;49.166;8.076;2022-10-31T08:33:42;16.70;68.10
46366;DHT22;32073;49.166;8.076;2022-10-31T08:37:43;16.80;68.10
46366;DHT22;32073;49.166;8.076;2022-10-31T08:41:44;16.90;68.10
46366;DHT22;32073;49.166;8.076;2022-10-31T08:45:48;17.00;68.30
46366;DHT22;32073;49.166;8.076;2022-10-31T08:49:49;17.10;68.30
46366;DHT22;32073;49.166;8.076;2022-10-31T08:53:49;17.20;68.30
46366;DHT22;32073;49.166;8.076;2022-10-31T08:57:56;17.30;68.40
46366;DHT22;32073;49.166;8.076;2022-10-31T09:01:57;17.40;68.40
46366;DHT22;32073;49.166;8.076;2022-10-31T09:05:59;17.40;68.20
46366;DHT22;32073;49.166;8.076;2022-10-31T09:10:03;17.60;68.30
46366;DHT22;32073;49.166;8.076;2022-10-31T09:14:03;17.60;68.10
46366;DHT22;32073;49.166;8.076;2022-10-31T09:18:05;17.70;68.00
46366;DHT22;32073;49.166;8.076;2022-10-31T09:22:06;17.80;68.00
46366;DHT22;32073;49.166;8.076;2022-10-31T09:26:07;17.90;68.00
46366;DHT22;32073;49.166;8.076;2022-10-31T09:30:08;17.90;67.90
46366;DHT22;32073;49.166;8.076;2022-10-31T09:34:09;18.00;67.80
46366;DHT22;32073;49.166;8.076;2022-10-31T09:38:15;18.00;67.60
46366;DHT22;32073;49.166;8.076;2022-10-31T09:42:40;18.10;67.50
46366;DHT22;32073;49.166;8.076;2022-10-31T09:47:16;18.20;67.50
46366;DHT22;32073;49.166;8.076;2022-10-31T09:51:33;18.20;67.60
46366;DHT22;32073;49.166;8.076;2022-10-31T09:55:41;18.50;67.80
46366;DHT22;32073;49.166;8.076;2022-10-31T09:59:44;18.40;67.70
46366;DHT22;32073;49.166;8.076;2022-10-31T10:03:50;18.50;67.80
46366;DHT22;32073;49.166;8.076;2022-10-31T10:21:20;18.80;67.30
46366;DHT22;32073;49.166;8.076;2022-10-31T10:25:40;18.90;67.00
46366;DHT22;32073;49.166;8.076;2022-10-31T10:29:49;18.90;67.10
46366;DHT22;32073;49.166;8.076;2022-10-31T10:38:54;19.10;67.00
46366;DHT22;32073;49.166;8.076;2022-10-31T10:43:19;19.10;66.80
46366;DHT22;32073;49.166;8.076;2022-10-31T10:47:30;19.20;66.80
46366;DHT22;32073;49.166;8.076;2022-10-31T10:51:52;19.30;67.00
46366;DHT22;32073;49.166;8.076;2022-10-31T10:56:02;19.30;66.80
46366;DHT22;32073;49.166;8.076;2022-10-31T11:00:26;19.40;67.00
46366;DHT22;32073;49.166;8.076;2022-10-31T11:04:31;19.50;66.50
46366;DHT22;32073;49.166;8.076;2022-10-31T11:08:35;19.50;66.50
46366;DHT22;32073;49.166;8.076;2022-10-31T11:12:36;19.60;66.60
46366;DHT22;32073;49.166;8.076;2022-10-31T11:16:40;19.50;66.50
46366;DHT22;32073;49.166;8.076;2022-10-31T11:20:58;19.70;66.40
46366;DHT22;32073;49.166;8.076;2022-10-31T11:24:59;19.70;66.10
46366;DHT22;32073;49.166;8.076;2022-10-31T11:29:00;19.70;66.30
46366;DHT22;32073;49.166;8.076;2022-10-31T11:33:03;19.90;66.40
46366;DHT22;32073;49.166;8.076;2022-10-31T11:37:13;19.90;66.40
46366;DHT22;32073;49.166;8.076;2022-10-31T11:45:34;19.90;65.90
46366;DHT22;32073;49.166;8.076;2022-10-31T11:49:37;20.00;66.00
46366;DHT22;32073;49.166;8.076;2022-10-31T11:53:51;20.10;66.30
46366;DHT22;32073;49.166;8.076;2022-10-31T11:57:54;20.10;65.90
46366;DHT22;32073;49.166;8.076;2022-10-31T12:01:58;20.10;66.00
46366;DHT22;32073;49.166;8.076;2022-10-31T12:06:23;20.10;65.80
46366;DHT22;32073;49.166;8.076;2022-10-31T12:11:30;20.20;65.50
46366;DHT22;32073;49.166;8.076;2022-10-31T12:24:00;20.20;65.30
46366;DHT22;32073;49.166;8.076;2022-10-31T12:32:53;20.20;65.30
46366;DHT22;32073;49.166;8.076;2022-10-31T12:46:50;20.30;65.10
46366;DHT22;32073;49.166;8.076;2022-10-31T13:04:18;20.30;65.40
46366;DHT22;32073;49.166;8.076;2022-10-31T13:08:20;20.40;65.30
46366;DHT22;32073;49.166;8.076;2022-10-31T13:12:23;20.50;65.40
46366;DHT22;32073;49.166;8.076;2022-10-31T13:16:29;20.70;65.50
46366;DHT22;32073;49.166;8.076;2022-10-31T13:20:45;20.70;64.90
46366;DHT22;32073;49.166;8.076;2022-10-31T13:25:03;20.90;64.10
46366;DHT22;32073;49.166;8.076;2022-10-31T13:29:26;21.00;63.90
46366;DHT22;32073;49.166;8.076;2022-10-31T13:33:47;21.00;63.60
46366;DHT22;32073;49.166;8.076;2022-10-31T13:37:57;21.00;63.00
46366;DHT22;32073;49.166;8.076;2022-10-31T13:46:40;21.00;62.90
46366;DHT22;32073;49.166;8.076;2022-10-31T13:50:54;21.00;63.00
46366;DHT22;32073;49.166;8.076;2022-10-31T13:54:56;20.90;62.90
46366;DHT22;32073;49.166;8.076;2022-10-31T14:03:05;20.70;63.10
46366;DHT22;32073;49.166;8.076;2022-10-31T14:07:07;20.60;63.30
46366;DHT22;32073;49.166;8.076;2022-10-31T14:11:22;20.50;63.40
46366;DHT22;32073;49.166;8.076;2022-10-31T14:15:26;20.50;63.60
46366;DHT22;32073;49.166;8.076;2022-10-31T14:19:28;20.50;63.80
46366;DHT22;32073;49.166;8.076;2022-10-31T14:23:38;20.40;63.90
46366;DHT22;32073;49.166;8.076;2022-10-31T14:27:46;20.40;63.30
46366;DHT22;32073;49.166;8.076;2022-10-31T14:31:54;20.50;63.60
46366;DHT22;32073;49.166;8.076;2022-10-31T14:36:10;20.40;63.50
46366;DHT22;32073;49.166;8.076;2022-10-31T14:44:38;20.40;63.80
46366;DHT22;32073;49.166;8.076;2022-10-31T14:53:34;20.30;63.90
46366;DHT22;32073;49.166;8.076;2022-10-31T14:57:45;20.30;64.00
46366;DHT22;32073;49.166;8.076;2022-10-31T15:01:58;20.30;64.10
46366;DHT22;32073;49.166;8.076;2022-10-31T15:06:11;20.20;64.10
46366;DHT22;32073;49.166;8.076;2022-10-31T15:10:33;20.20;64.10
46366;DHT22;32073;49.166;8.076;2022-10-31T15:14:37;20.20;64.20
46366;DHT22;32073;49.166;8.076;2022-10-31T15:18:44;20.20;64.30
46366;DHT22;32073;49.166;8.076;2022-10-31T15:22:48;20.20;64.30
46366;DHT22;32073;49.166;8.076;2022-10-31T15:26:51;20.10;64.30
46366;DHT22;32073;49.166;8.076;2022-10-31T15:30:55;20.10;64.20
46366;DHT22;32073;49.166;8.076;2022-10-31T15:34:56;20.00;64.10
46366;DHT22;32073;49.166;8.076;2022-10-31T15:38:57;19.90;64.10
46366;DHT22;32073;49.166;8.076;2022-10-31T15:43:04;19.80;64.20
46366;DHT22;32073;49.166;8.076;2022-10-31T15:47:13;19.70;64.40
46366;DHT22;32073;49.166;8.076;2022-10-31T15:51:16;19.70;64.40
46366;DHT22;32073;49.166;8.076;2022-10-31T15:55:23;19.60;64.40
46366;DHT22;32073;49.166;8.076;2022-10-31T15:59:26;19.60;64.60
46366;DHT22;32073;49.166;8.076;2022-10-31T16:03:33;19.60;64.50
46366;DHT22;32073;49.166;8.076;2022-10-31T16:07:34;19.60;64.80
46366;DHT22;32073;49.166;8.076;2022-10-31T16:11:38;19.50;64.80
46366;DHT22;32073;49.166;8.076;2022-10-31T16:15:52;19.50;65.00
46366;DHT22;32073;49.166;8.076;2022-10-31T16:19:56;19.50;65.10
46366;DHT22;32073;49.166;8.076;2022-10-31T16:24:44;19.40;65.00
46366;DHT22;32073;49.166;8.076;2022-10-31T16:28:27;19.40;65.00
46366;DHT22;32073;49.166;8.076;2022-10-31T16:32:34;19.40;64.90
46366;DHT22;32073;49.166;8.076;2022-10-31T16:36:36;19.30;65.00
46366;DHT22;32073;49.166;8.076;2022-10-31T16:40:38;19.30;64.90
46366;DHT22;32073;49.166;8.076;2022-10-31T16:44:47;19.30;65.00
46366;DHT22;32073;49.166;8.076;2022-10-31T16:48:48;19.20;65.10
46366;DHT22;32073;49.166;8.076;2022-10-31T16:52:49;19.20;65.10
46366;DHT22;32073;49.166;8.076;2022-10-31T16:56:49;19.10;65.00
46366;DHT22;32073;49.166;8.076;2022-10-31T17:00:51;19.10;64.90
46366;DHT22;32073;49.166;8.076;2022-10-31T17:04:52;19.00;64.90
46366;DHT22;32073;49.166;8.076;2022-10-31T17:08:53;18.90;64.90
46366;DHT22;32073;49.166;8.076;2022-10-31T17:12:55;18.90;64.90
46366;DHT22;32073;49.166;8.076;2022-10-31T17:16:57;18.80;64.90
46366;DHT22;32073;49.166;8.076;2022-10-31T17:21:00;18.70;64.80
46366;DHT22;32073;49.166;8.076;2022-10-31T17:25:02;18.60;65.00
46366;DHT22;32073;49.166;8.076;2022-10-31T17:29:03;18.50;65.00
46366;DHT22;32073;49.166;8.076;2022-10-31T17:33:03;18.50;65.20
46366;DHT22;32073;49.166;8.076;2022-10-31T17:37:04;18.40;65.10
46366;DHT22;32073;49.166;8.076;2022-10-31T17:41:05;18.40;65.10
46366;DHT22;32073;49.166;8.076;2022-10-31T17:45:07;18.30;65.10
46366;DHT22;32073;49.166;8.076;2022-10-31T17:49:11;18.30;65.00
46366;DHT22;32073;49.166;8.076;2022-10-31T17:53:11;18.30;65.30
46366;DHT22;32073;49.166;8.076;2022-10-31T17:57:12;18.20;65.40
46366;DHT22;32073;49.166;8.076;2022-10-31T18:01:15;18.20;65.40
46366;DHT22;32073;49.166;8.076;2022-10-31T18:05:17;18.20;65.50
46366;DHT22;32073;49.166;8.076;2022-10-31T18:09:21;18.10;65.50
46366;DHT22;32073;49.166;8.076;2022-10-31T18:13:22;18.10;65.60
46366;DHT22;32073;49.166;8.076;2022-10-31T18:17:23;18.20;65.70
46366;DHT22;32073;49.166;8.076;2022-10-31T18:21:25;18.10;65.70
46366;DHT22;32073;49.166;8.076;2022-10-31T18:25:26;18.10;65.70
46366;DHT22;32073;49.166;8.076;2022-10-31T18:29:27;18.10;65.80
46366;DHT22;32073;49.166;8.076;2022-10-31T18:33:28;18.10;65.80
46366;DHT22;32073;49.166;8.076;2022-10-31T18:37:29;18.10;65.90
46366;DHT22;32073;49.166;8.076;2022-10-31T18:41:30;18.10;65.90
46366;DHT22;32073;49.166;8.076;2022-10-31T18:45:30;18.00;65.80
46366;DHT22;32073;49.166;8.076;2022-10-31T18:49:31;18.10;65.80
46366;DHT22;32073;49.166;8.076;2022-10-31T18:53:33;18.10;65.80
46366;DHT22;32073;49.166;8.076;2022-10-31T18:57:34;18.10;65.80
46366;DHT22;32073;49.166;8.076;2022-10-31T19:01:34;18.10;65.80
46366;DHT22;32073;49.166;8.076;2022-10-31T19:05:35;18.00;65.70
46366;DHT22;32073;49.166;8.076;2022-10-31T19:09:35;18.00;65.80
46366;DHT22;32073;49.166;8.076;2022-10-31T19:13:37;17.90;65.70
46366;DHT22;32073;49.166;8.076;2022-10-31T19:17:38;17.90;65.80
46366;DHT22;32073;49.166;8.076;2022-10-31T19:21:39;17.80;65.80
46366;DHT22;32073;49.166;8.076;2022-10-31T19:25:40;17.80;65.80
46366;DHT22;32073;49.166;8.076;2022-10-31T19:29:40;17.70;65.80
46366;DHT22;32073;49.166;8.076;2022-10-31T19:33:42;17.70;65.90
46366;DHT22;32073;49.166;8.076;2022-10-31T19:37:42;17.70;65.90
46366;DHT22;32073;49.166;8.076;2022-10-31T19:41:43;17.60;66.00
46366;DHT22;32073;49.166;8.076;2022-10-31T19:45:53;17.60;66.50
46366;DHT22;32073;49.166;8.076;2022-10-31T19:49:57;17.60;66.10
46366;DHT22;32073;49.166;8.076;2022-10-31T19:53:58;17.60;65.80
46366;DHT22;32073;49.166;8.076;2022-10-31T19:57:58;17.50;65.70
46366;DHT22;32073;49.166;8.076;2022-10-31T20:01:59;17.50;65.70
46366;DHT22;32073;49.166;8.076;2022-10-31T20:06:03;17.40;65.70
46366;DHT22;32073;49.166;8.076;2022-10-31T20:10:04;17.30;65.90
46366;DHT22;32073;49.166;8.076;2022-10-31T20:14:07;17.30;66.00
46366;DHT22;32073;49.166;8.076;2022-10-31T20:18:08;17.30;66.10
46366;DHT22;32073;49.166;8.076;2022-10-31T20:22:09;17.30;66.00
46366;DHT22;32073;49.166;8.076;2022-10-31T20:26:12;17.20;66.00
46366;DHT22;32073;49.166;8.076;2022-10-31T20:30:15;17.20;66.20
46366;DHT22;32073;49.166;8.076;2022-10-31T20:34:16;17.20;66.20
46366;DHT22;32073;49.166;8.076;2022-10-31T20:38:17;17.10;66.30
46366;DHT22;32073;49.166;8.076;2022-10-31T20:42:17;17.20;66.50
46366;DHT22;32073;49.166;8.076;2022-10-31T20:46:25;17.20;66.50
46366;DHT22;32073;49.166;8.076;2022-10-31T20:50:27;17.20;66.50
46366;DHT22;32073;49.166;8.076;2022-10-31T20:54:27;17.20;66.20
46366;DHT22;32073;49.166;8.076;2022-10-31T20:58:28;17.20;66.20
46366;DHT22;32073;49.166;8.076;2022-10-31T21:02:30;17.10;66.00
46366;DHT22;32073;49.166;8.076;2022-10-31T21:06:31;17.10;66.00
46366;DHT22;32073;49.166;8.076;2022-10-31T21:10:31;17.00;66.10
46366;DHT22;32073;49.166;8.076;2022-10-31T21:14:32;17.00;66.30
46366;DHT22;32073;49.166;8.076;2022-10-31T21:18:34;16.90;67.00
46366;DHT22;32073;49.166;8.076;2022-10-31T21:22:36;16.90;66.50
46366;DHT22;32073;49.166;8.076;2022-10-31T21:26:41;16.90;66.50
46366;DHT22;32073;49.166;8.076;2022-10-31T21:30:46;16.90;66.70
46366;DHT22;32073;49.166;8.076;2022-10-31T21:34:47;16.90;66.70
46366;DHT22;32073;49.166;8.076;2022-10-31T21:38:52;16.80;66.60
46366;DHT22;32073;49.166;8.076;2022-10-31T21:42:55;16.80;66.60
46366;DHT22;32073;49.166;8.076;2022-10-31T21:46:56;16.80;66.70
46366;DHT22;32073;49.166;8.076;2022-10-31T21:50:58;16.80;66.60
46366;DHT22;32073;49.166;8.076;2022-10-31T21:55:02;16.80;66.50
46366;DHT22;32073;49.166;8.076;2022-10-31T21:59:03;16.80;66.50
46366;DHT22;32073;49.166;8.076;2022-10-31T22:03:04;16.70;66.50
46366;DHT22;32073;49.166;8.076;2022-10-31T22:07:05;16.70;66.50
46366;DHT22;32073;49.166;8.076;2022-10-31T22:11:11;16.70;66.50
46366;DHT22;32073;49.166;8.076;2022-10-31T22:15:15;16.60;66.60
46366;DHT22;32073;49.166;8.076;2022-10-31T22:19:21;16.60;66.60
46366;DHT22;32073;49.166;8.076;2022-10-31T22:23:22;16.60;66.70
46366;DHT22;32073;49.166;8.076;2022-10-31T22:27:23;16.60;66.70
46366;DHT22;32073;49.166;8.076;2022-10-31T22:31:25;16.70;67.40
46366;DHT22;32073;49.166;8.076;2022-10-31T22:35:26;16.60;66.80
46366;DHT22;32073;49.166;8.076;2022-10-31T22:39:26;16.50;66.80
46366;DHT22;32073;49.166;8.076;2022-10-31T22:43:27;16.80;67.00
46366;DHT22;32073;49.166;8.076;2022-10-31T22:47:28;16.70;67.00
46366;DHT22;32073;49.166;8.076;2022-10-31T22:51:37;16.70;67.00
46366;DHT22;32073;49.166;8.076;2022-10-31T22:55:38;16.70;67.10
46366;DHT22;32073;49.166;8.076;2022-10-31T22:59:39;16.70;67.00
46366;DHT22;32073;49.166;8.076;2022-10-31T23:03:40;16.80;67.10
46366;DHT22;32073;49.166;8.076;2022-10-31T23:07:41;16.70;67.00
46366;DHT22;32073;49.166;8.076;2022-10-31T23:11:42;16.70;67.50
46366;DHT22;32073;49.166;8.076;2022-10-31T23:15:43;16.70;66.80
46366;DHT22;32073;49.166;8.076;2022-10-31T23:19:44;16.70;66.90
46366;DHT22;32073;49.166;8.076;2022-10-31T23:23:45;16.70;67.70
46366;DHT22;32073;49.166;8.076;2022-10-31T23:27:45;16.70;67.20
46366;DHT22;32073;49.166;8.076;2022-10-31T23:31:46;16.70;67.20
46366;DHT22;32073;49.166;8.076;2022-10-31T23:35:47;16.80;67.40
46366;DHT22;32073;49.166;8.076;2022-10-31T23:39:48;16.80;67.30
46366;DHT22;32073;49.166;8.076;2022-10-31T23:43:49;16.80;67.20
46366;DHT22;32073;49.166;8.076;2022-10-31T23:47:49;16.80;67.30
46366;DHT22;32073;49.166;8.076;2022-10-31T23:51:50;16.80;67.40
46366;DHT22;32073;49.166;8.076;2022-10-31T23:55:54;16.80;67.50
46366;DHT22;32073;49.166;8.076;2022-10-31T23:59:55;16.90;67.60
